Terminal Aerodrome Forecast
Issued by NWS Omaha/Valley, NE

Home | Current Version | Previous Version | Text Only | Print | Product List | Glossary On
Versions: 1 2 3 4 5 6 7 8 9 10 11 12 13 14 15 16 17 18 19
000
FTUS43 KOAX 180520
TAFLNK
TAF
KLNK 180520Z 1806/1906 16005KT P6SM FEW100 BKN250
     FM181400 17010KT P6SM SCT100
     FM181800 18019G27KT P6SM FEW040 SCT250
     FM190100 17015KT P6SM SCT250=

USA.gov is the U.S. government's official web portal to all federal, state and local government web resources and services.